sensor_id;sensor_type;location;lat;lon;timestamp;P1;durP1;ratioP1;P2;durP2;ratioP2
46116;SDS011;32591;48.102;11.772;2022-08-19T00:00:37;5.00;;;4.07;;
46116;SDS011;32591;48.102;11.772;2022-08-19T00:03:05;6.88;;;5.50;;
46116;SDS011;32591;48.102;11.772;2022-08-19T00:05:33;5.75;;;4.45;;
46116;SDS011;32591;48.102;11.772;2022-08-19T00:08:00;6.70;;;4.80;;
46116;SDS011;32591;48.102;11.772;2022-08-19T00:10:27;5.38;;;4.75;;
46116;SDS011;32591;48.102;11.772;2022-08-19T00:12:55;7.10;;;4.78;;
46116;SDS011;32591;48.102;11.772;2022-08-19T00:15:22;5.97;;;4.30;;
46116;SDS011;32591;48.102;11.772;2022-08-19T00:17:49;5.20;;;4.47;;
46116;SDS011;32591;48.102;11.772;2022-08-19T00:20:18;5.15;;;4.13;;
46116;SDS011;32591;48.102;11.772;2022-08-19T00:22:47;5.57;;;4.20;;
46116;SDS011;32591;48.102;11.772;2022-08-19T00:25:14;4.80;;;3.90;;
46116;SDS011;32591;48.102;11.772;2022-08-19T00:27:41;5.85;;;4.07;;
46116;SDS011;32591;48.102;11.772;2022-08-19T00:30:10;6.18;;;4.65;;
46116;SDS011;32591;48.102;11.772;2022-08-19T00:32:38;5.65;;;3.90;;
46116;SDS011;32591;48.102;11.772;2022-08-19T00:35:05;4.93;;;3.97;;
46116;SDS011;32591;48.102;11.772;2022-08-19T00:37:34;5.40;;;3.35;;
46116;SDS011;32591;48.102;11.772;2022-08-19T00:40:02;4.85;;;3.85;;
46116;SDS011;32591;48.102;11.772;2022-08-19T00:42:31;5.07;;;3.85;;
46116;SDS011;32591;48.102;11.772;2022-08-19T00:45:12;6.40;;;3.83;;
46116;SDS011;32591;48.102;11.772;2022-08-19T00:47:52;5.25;;;4.03;;
46116;SDS011;32591;48.102;11.772;2022-08-19T00:50:20;5.93;;;3.92;;
46116;SDS011;32591;48.102;11.772;2022-08-19T00:52:49;6.72;;;4.50;;
46116;SDS011;32591;48.102;11.772;2022-08-19T00:55:18;5.30;;;4.55;;
46116;SDS011;32591;48.102;11.772;2022-08-19T00:57:50;5.82;;;4.38;;
46116;SDS011;32591;48.102;11.772;2022-08-19T01:00:23;4.30;;;3.17;;
46116;SDS011;32591;48.102;11.772;2022-08-19T01:02:52;4.78;;;3.67;;
46116;SDS011;32591;48.102;11.772;2022-08-19T01:05:20;5.38;;;4.10;;
46116;SDS011;32591;48.102;11.772;2022-08-19T01:07:52;7.95;;;4.40;;
46116;SDS011;32591;48.102;11.772;2022-08-19T01:10:21;5.88;;;3.72;;
46116;SDS011;32591;48.102;11.772;2022-08-19T01:12:51;5.43;;;4.10;;
46116;SDS011;32591;48.102;11.772;2022-08-19T01:15:21;5.13;;;4.20;;
46116;SDS011;32591;48.102;11.772;2022-08-19T01:17:54;6.40;;;4.10;;
46116;SDS011;32591;48.102;11.772;2022-08-19T01:20:23;5.50;;;3.80;;
46116;SDS011;32591;48.102;11.772;2022-08-19T01:22:53;5.65;;;4.00;;
46116;SDS011;32591;48.102;11.772;2022-08-19T01:25:24;6.95;;;4.85;;
46116;SDS011;32591;48.102;11.772;2022-08-19T01:27:56;6.85;;;4.40;;
46116;SDS011;32591;48.102;11.772;2022-08-19T01:30:28;5.93;;;3.92;;
46116;SDS011;32591;48.102;11.772;2022-08-19T01:33:00;5.77;;;3.80;;
46116;SDS011;32591;48.102;11.772;2022-08-19T01:35:30;6.75;;;4.80;;
46116;SDS011;32591;48.102;11.772;2022-08-19T01:38:00;6.65;;;4.82;;
46116;SDS011;32591;48.102;11.772;2022-08-19T01:40:33;6.35;;;4.15;;
46116;SDS011;32591;48.102;11.772;2022-08-19T01:43:04;5.53;;;4.03;;
46116;SDS011;32591;48.102;11.772;2022-08-19T01:45:33;5.50;;;4.22;;
46116;SDS011;32591;48.102;11.772;2022-08-19T01:48:03;4.90;;;3.55;;
46116;SDS011;32591;48.102;11.772;2022-08-19T01:50:31;4.43;;;3.40;;
46116;SDS011;32591;48.102;11.772;2022-08-19T01:53:11;6.13;;;4.10;;
46116;SDS011;32591;48.102;11.772;2022-08-19T01:55:39;4.47;;;3.63;;
46116;SDS011;32591;48.102;11.772;2022-08-19T01:58:09;5.47;;;3.30;;
46116;SDS011;32591;48.102;11.772;2022-08-19T02:00:41;5.45;;;3.53;;
46116;SDS011;32591;48.102;11.772;2022-08-19T02:03:10;4.60;;;3.60;;
46116;SDS011;32591;48.102;11.772;2022-08-19T02:05:37;4.65;;;3.13;;
46116;SDS011;32591;48.102;11.772;2022-08-19T02:08:04;5.47;;;3.85;;
46116;SDS011;32591;48.102;11.772;2022-08-19T02:10:37;5.35;;;3.60;;
46116;SDS011;32591;48.102;11.772;2022-08-19T02:13:05;5.32;;;3.50;;
46116;SDS011;32591;48.102;11.772;2022-08-19T02:15:32;4.15;;;3.22;;
46116;SDS011;32591;48.102;11.772;2022-08-19T02:17:59;4.80;;;3.70;;
46116;SDS011;32591;48.102;11.772;2022-08-19T02:20:26;5.90;;;3.95;;
46116;SDS011;32591;48.102;11.772;2022-08-19T02:22:53;4.45;;;3.42;;
46116;SDS011;32591;48.102;11.772;2022-08-19T02:25:21;5.90;;;3.67;;
46116;SDS011;32591;48.102;11.772;2022-08-19T02:27:50;5.18;;;3.22;;
46116;SDS011;32591;48.102;11.772;2022-08-19T02:30:17;4.10;;;3.10;;
46116;SDS011;32591;48.102;11.772;2022-08-19T02:32:44;4.90;;;3.85;;
46116;SDS011;32591;48.102;11.772;2022-08-19T02:35:12;4.10;;;2.90;;
46116;SDS011;32591;48.102;11.772;2022-08-19T02:37:39;4.40;;;3.20;;
46116;SDS011;32591;48.102;11.772;2022-08-19T02:40:24;4.32;;;3.25;;
46116;SDS011;32591;48.102;11.772;2022-08-19T02:42:52;6.30;;;4.43;;
46116;SDS011;32591;48.102;11.772;2022-08-19T02:45:19;3.85;;;2.90;;
46116;SDS011;32591;48.102;11.772;2022-08-19T02:47:46;4.32;;;3.28;;
46116;SDS011;32591;48.102;11.772;2022-08-19T02:50:13;4.38;;;3.13;;
46116;SDS011;32591;48.102;11.772;2022-08-19T02:52:40;4.22;;;3.17;;
46116;SDS011;32591;48.102;11.772;2022-08-19T02:55:07;5.38;;;3.40;;
46116;SDS011;32591;48.102;11.772;2022-08-19T02:57:35;5.38;;;3.35;;
46116;SDS011;32591;48.102;11.772;2022-08-19T03:00:05;5.05;;;3.75;;
46116;SDS011;32591;48.102;11.772;2022-08-19T03:02:35;4.25;;;3.10;;
46116;SDS011;32591;48.102;11.772;2022-08-19T03:05:12;4.40;;;3.03;;
46116;SDS011;32591;48.102;11.772;2022-08-19T03:07:39;5.55;;;3.63;;
46116;SDS011;32591;48.102;11.772;2022-08-19T03:10:06;4.60;;;3.35;;
46116;SDS011;32591;48.102;11.772;2022-08-19T03:12:35;5.25;;;3.50;;
46116;SDS011;32591;48.102;11.772;2022-08-19T03:15:06;4.20;;;3.40;;
46116;SDS011;32591;48.102;11.772;2022-08-19T03:17:34;4.97;;;3.33;;
46116;SDS011;32591;48.102;11.772;2022-08-19T03:20:02;4.47;;;3.60;;
46116;SDS011;32591;48.102;11.772;2022-08-19T03:22:31;5.75;;;3.40;;
46116;SDS011;32591;48.102;11.772;2022-08-19T03:24:58;4.18;;;3.28;;
46116;SDS011;32591;48.102;11.772;2022-08-19T03:27:25;4.70;;;3.55;;
46116;SDS011;32591;48.102;11.772;2022-08-19T03:29:52;4.75;;;3.25;;
46116;SDS011;32591;48.102;11.772;2022-08-19T03:32:20;5.30;;;3.67;;
46116;SDS011;32591;48.102;11.772;2022-08-19T03:34:47;5.57;;;3.35;;
46116;SDS011;32591;48.102;11.772;2022-08-19T03:37:16;5.50;;;4.22;;
46116;SDS011;32591;48.102;11.772;2022-08-19T03:39:43;5.57;;;3.40;;
46116;SDS011;32591;48.102;11.772;2022-08-19T03:42:10;5.28;;;3.63;;
46116;SDS011;32591;48.102;11.772;2022-08-19T03:44:37;5.57;;;3.40;;
46116;SDS011;32591;48.102;11.772;2022-08-19T03:47:04;3.90;;;3.28;;
46116;SDS011;32591;48.102;11.772;2022-08-19T03:49:33;4.25;;;3.15;;
46116;SDS011;32591;48.102;11.772;2022-08-19T03:52:01;4.53;;;2.90;;
46116;SDS011;32591;48.102;11.772;2022-08-19T03:54:32;4.70;;;3.45;;
46116;SDS011;32591;48.102;11.772;2022-08-19T03:57:03;4.50;;;3.25;;
46116;SDS011;32591;48.102;11.772;2022-08-19T03:59:31;5.80;;;3.38;;
46116;SDS011;32591;48.102;11.772;2022-08-19T04:02:01;5.15;;;3.92;;
46116;SDS011;32591;48.102;11.772;2022-08-19T04:04:35;4.75;;;3.33;;
46116;SDS011;32591;48.102;11.772;2022-08-19T04:07:03;4.88;;;3.90;;
46116;SDS011;32591;48.102;11.772;2022-08-19T04:09:30;5.25;;;3.95;;
46116;SDS011;32591;48.102;11.772;2022-08-19T04:11:59;4.57;;;2.85;;
46116;SDS011;32591;48.102;11.772;2022-08-19T04:17:03;5.37;;;3.47;;
46116;SDS011;32591;48.102;11.772;2022-08-19T04:19:30;3.70;;;2.97;;
46116;SDS011;32591;48.102;11.772;2022-08-19T04:22:00;5.07;;;3.63;;
46116;SDS011;32591;48.102;11.772;2022-08-19T04:24:27;5.20;;;3.55;;
46116;SDS011;32591;48.102;11.772;2022-08-19T04:26:54;5.35;;;3.90;;
46116;SDS011;32591;48.102;11.772;2022-08-19T04:29:21;4.22;;;3.15;;
46116;SDS011;32591;48.102;11.772;2022-08-19T04:31:52;4.82;;;3.70;;
46116;SDS011;32591;48.102;11.772;2022-08-19T04:34:21;4.28;;;3.13;;
46116;SDS011;32591;48.102;11.772;2022-08-19T04:36:51;4.85;;;3.65;;
46116;SDS011;32591;48.102;11.772;2022-08-19T04:39:22;5.00;;;3.85;;
46116;SDS011;32591;48.102;11.772;2022-08-19T04:42:12;5.25;;;3.60;;
46116;SDS011;32591;48.102;11.772;2022-08-19T04:44:57;5.38;;;3.88;;
46116;SDS011;32591;48.102;11.772;2022-08-19T04:47:24;4.15;;;3.15;;
46116;SDS011;32591;48.102;11.772;2022-08-19T04:49:51;4.65;;;3.10;;
46116;SDS011;32591;48.102;11.772;2022-08-19T04:52:18;6.32;;;3.83;;
46116;SDS011;32591;48.102;11.772;2022-08-19T04:54:46;4.60;;;3.38;;
46116;SDS011;32591;48.102;11.772;2022-08-19T04:57:13;6.43;;;3.75;;
46116;SDS011;32591;48.102;11.772;2022-08-19T04:59:40;4.43;;;3.10;;
46116;SDS011;32591;48.102;11.772;2022-08-19T05:02:08;4.50;;;3.38;;
46116;SDS011;32591;48.102;11.772;2022-08-19T05:04:36;4.95;;;3.42;;
46116;SDS011;32591;48.102;11.772;2022-08-19T05:07:04;4.88;;;3.03;;
46116;SDS011;32591;48.102;11.772;2022-08-19T05:09:32;3.65;;;3.00;;
46116;SDS011;32591;48.102;11.772;2022-08-19T05:12:01;3.67;;;2.83;;
46116;SDS011;32591;48.102;11.772;2022-08-19T05:14:29;4.30;;;2.83;;
46116;SDS011;32591;48.102;11.772;2022-08-19T05:16:55;3.35;;;2.80;;
46116;SDS011;32591;48.102;11.772;2022-08-19T05:19:22;4.15;;;2.53;;
46116;SDS011;32591;48.102;11.772;2022-08-19T05:22:07;3.60;;;2.88;;
46116;SDS011;32591;48.102;11.772;2022-08-19T05:24:51;5.68;;;3.50;;
46116;SDS011;32591;48.102;11.772;2022-08-19T05:27:19;5.13;;;3.33;;
46116;SDS011;32591;48.102;11.772;2022-08-19T05:29:46;5.47;;;4.07;;
46116;SDS011;32591;48.102;11.772;2022-08-19T05:32:13;5.47;;;3.15;;
46116;SDS011;32591;48.102;11.772;2022-08-19T05:34:40;5.20;;;3.63;;
46116;SDS011;32591;48.102;11.772;2022-08-19T05:37:07;5.38;;;3.42;;
46116;SDS011;32591;48.102;11.772;2022-08-19T05:39:35;39.28;;;6.38;;
46116;SDS011;32591;48.102;11.772;2022-08-19T05:42:05;16.88;;;5.60;;
46116;SDS011;32591;48.102;11.772;2022-08-19T05:44:36;6.70;;;3.25;;
46116;SDS011;32591;48.102;11.772;2022-08-19T05:47:10;4.38;;;3.20;;
46116;SDS011;32591;48.102;11.772;2022-08-19T05:49:40;5.65;;;4.07;;
46116;SDS011;32591;48.102;11.772;2022-08-19T05:52:09;4.88;;;3.17;;
46116;SDS011;32591;48.102;11.772;2022-08-19T05:54:41;4.32;;;3.45;;
46116;SDS011;32591;48.102;11.772;2022-08-19T05:57:14;5.93;;;3.45;;
46116;SDS011;32591;48.102;11.772;2022-08-19T05:59:43;4.97;;;3.88;;
46116;SDS011;32591;48.102;11.772;2022-08-19T06:02:15;6.07;;;4.22;;
46116;SDS011;32591;48.102;11.772;2022-08-19T06:04:42;5.30;;;4.00;;
46116;SDS011;32591;48.102;11.772;2022-08-19T06:07:09;5.53;;;3.78;;
46116;SDS011;32591;48.102;11.772;2022-08-19T06:09:36;5.88;;;4.40;;
46116;SDS011;32591;48.102;11.772;2022-08-19T06:12:03;7.90;;;4.60;;
46116;SDS011;32591;48.102;11.772;2022-08-19T06:14:31;5.35;;;4.30;;
46116;SDS011;32591;48.102;11.772;2022-08-19T06:17:02;6.55;;;4.25;;
46116;SDS011;32591;48.102;11.772;2022-08-19T06:19:29;6.53;;;3.85;;
46116;SDS011;32591;48.102;11.772;2022-08-19T06:21:57;5.03;;;4.32;;
46116;SDS011;32591;48.102;11.772;2022-08-19T06:24:26;7.35;;;5.03;;
46116;SDS011;32591;48.102;11.772;2022-08-19T06:26:55;5.68;;;4.13;;
46116;SDS011;32591;48.102;11.772;2022-08-19T06:29:24;7.63;;;4.68;;
46116;SDS011;32591;48.102;11.772;2022-08-19T06:31:53;7.70;;;4.40;;
46116;SDS011;32591;48.102;11.772;2022-08-19T06:34:27;7.30;;;4.95;;
46116;SDS011;32591;48.102;11.772;2022-08-19T06:36:57;7.10;;;4.80;;
46116;SDS011;32591;48.102;11.772;2022-08-19T06:39:27;5.47;;;4.15;;
46116;SDS011;32591;48.102;11.772;2022-08-19T06:41:58;6.32;;;4.50;;
46116;SDS011;32591;48.102;11.772;2022-08-19T06:44:28;7.70;;;4.40;;
46116;SDS011;32591;48.102;11.772;2022-08-19T06:47:00;7.30;;;4.45;;
46116;SDS011;32591;48.102;11.772;2022-08-19T06:49:29;6.50;;;4.53;;
46116;SDS011;32591;48.102;11.772;2022-08-19T06:51:57;6.88;;;4.82;;
46116;SDS011;32591;48.102;11.772;2022-08-19T06:54:25;10.85;;;5.53;;
46116;SDS011;32591;48.102;11.772;2022-08-19T06:56:53;10.48;;;5.30;;
46116;SDS011;32591;48.102;11.772;2022-08-19T06:59:22;5.63;;;4.45;;
46116;SDS011;32591;48.102;11.772;2022-08-19T07:01:52;7.10;;;5.20;;
46116;SDS011;32591;48.102;11.772;2022-08-19T07:04:24;8.77;;;6.15;;
46116;SDS011;32591;48.102;11.772;2022-08-19T07:06:58;8.85;;;6.55;;
46116;SDS011;32591;48.102;11.772;2022-08-19T07:09:31;10.80;;;7.60;;
46116;SDS011;32591;48.102;11.772;2022-08-19T07:11:58;9.63;;;7.07;;
46116;SDS011;32591;48.102;11.772;2022-08-19T07:14:26;10.75;;;7.05;;
46116;SDS011;32591;48.102;11.772;2022-08-19T07:16:54;10.73;;;7.28;;
46116;SDS011;32591;48.102;11.772;2022-08-19T07:19:23;11.60;;;7.25;;
46116;SDS011;32591;48.102;11.772;2022-08-19T07:21:52;11.13;;;7.35;;
46116;SDS011;32591;48.102;11.772;2022-08-19T07:24:23;11.73;;;7.55;;
46116;SDS011;32591;48.102;11.772;2022-08-19T07:26:53;11.63;;;8.07;;
46116;SDS011;32591;48.102;11.772;2022-08-19T07:29:25;15.18;;;9.45;;
46116;SDS011;32591;48.102;11.772;2022-08-19T07:31:54;11.32;;;8.32;;
46116;SDS011;32591;48.102;11.772;2022-08-19T07:34:23;12.18;;;8.23;;
46116;SDS011;32591;48.102;11.772;2022-08-19T07:36:52;12.60;;;8.43;;
46116;SDS011;32591;48.102;11.772;2022-08-19T07:39:22;12.57;;;9.35;;
46116;SDS011;32591;48.102;11.772;2022-08-19T07:41:53;15.70;;;10.02;;
46116;SDS011;32591;48.102;11.772;2022-08-19T07:44:21;13.73;;;9.48;;
46116;SDS011;32591;48.102;11.772;2022-08-19T07:46:49;14.48;;;9.13;;
46116;SDS011;32591;48.102;11.772;2022-08-19T07:49:18;13.73;;;9.73;;
46116;SDS011;32591;48.102;11.772;2022-08-19T07:51:47;12.20;;;9.18;;
46116;SDS011;32591;48.102;11.772;2022-08-19T07:54:17;12.65;;;8.57;;
46116;SDS011;32591;48.102;11.772;2022-08-19T07:56:46;12.80;;;8.50;;
46116;SDS011;32591;48.102;11.772;2022-08-19T07:59:15;11.55;;;8.68;;
46116;SDS011;32591;48.102;11.772;2022-08-19T08:01:42;15.63;;;9.65;;
46116;SDS011;32591;48.102;11.772;2022-08-19T08:04:10;12.10;;;8.68;;
46116;SDS011;32591;48.102;11.772;2022-08-19T08:06:55;13.55;;;9.88;;
46116;SDS011;32591;48.102;11.772;2022-08-19T08:09:41;12.70;;;9.20;;
46116;SDS011;32591;48.102;11.772;2022-08-19T08:12:11;13.13;;;9.18;;
46116;SDS011;32591;48.102;11.772;2022-08-19T08:14:42;13.70;;;10.13;;
46116;SDS011;32591;48.102;11.772;2022-08-19T08:17:12;13.50;;;9.10;;
46116;SDS011;32591;48.102;11.772;2022-08-19T08:19:41;12.85;;;9.63;;
46116;SDS011;32591;48.102;11.772;2022-08-19T08:22:10;13.70;;;9.55;;
46116;SDS011;32591;48.102;11.772;2022-08-19T08:25:01;12.32;;;8.50;;
46116;SDS011;32591;48.102;11.772;2022-08-19T08:27:33;12.25;;;8.30;;
46116;SDS011;32591;48.102;11.772;2022-08-19T08:30:05;13.88;;;9.82;;
46116;SDS011;32591;48.102;11.772;2022-08-19T08:32:35;12.18;;;9.07;;
46116;SDS011;32591;48.102;11.772;2022-08-19T08:35:03;10.43;;;8.00;;
46116;SDS011;32591;48.102;11.772;2022-08-19T08:37:30;12.45;;;8.55;;
46116;SDS011;32591;48.102;11.772;2022-08-19T08:39:57;12.48;;;8.60;;
46116;SDS011;32591;48.102;11.772;2022-08-19T08:42:26;13.40;;;10.02;;
46116;SDS011;32591;48.102;11.772;2022-08-19T08:44:59;13.20;;;8.98;;
46116;SDS011;32591;48.102;11.772;2022-08-19T08:47:31;13.07;;;9.07;;
46116;SDS011;32591;48.102;11.772;2022-08-19T08:50:05;12.00;;;9.13;;
46116;SDS011;32591;48.102;11.772;2022-08-19T08:52:39;13.07;;;9.18;;
46116;SDS011;32591;48.102;11.772;2022-08-19T08:55:13;11.80;;;9.15;;
46116;SDS011;32591;48.102;11.772;2022-08-19T08:57:48;12.50;;;8.90;;
46116;SDS011;32591;48.102;11.772;2022-08-19T09:00:23;18.35;;;10.32;;
46116;SDS011;32591;48.102;11.772;2022-08-19T09:02:53;13.82;;;10.35;;
46116;SDS011;32591;48.102;11.772;2022-08-19T09:05:23;13.52;;;9.80;;
46116;SDS011;32591;48.102;11.772;2022-08-19T09:08:02;16.15;;;10.80;;
46116;SDS011;32591;48.102;11.772;2022-08-19T09:10:34;13.45;;;10.38;;
46116;SDS011;32591;48.102;11.772;2022-08-19T09:13:10;15.95;;;10.90;;
46116;SDS011;32591;48.102;11.772;2022-08-19T09:15:50;14.80;;;10.68;;
46116;SDS011;32591;48.102;11.772;2022-08-19T09:18:24;16.08;;;10.45;;
46116;SDS011;32591;48.102;11.772;2022-08-19T09:20:51;14.77;;;9.80;;
46116;SDS011;32591;48.102;11.772;2022-08-19T09:23:18;14.52;;;10.63;;
46116;SDS011;32591;48.102;11.772;2022-08-19T09:25:49;13.07;;;9.57;;
46116;SDS011;32591;48.102;11.772;2022-08-19T09:28:17;14.20;;;10.23;;
46116;SDS011;32591;48.102;11.772;2022-08-19T09:30:44;15.40;;;10.00;;
46116;SDS011;32591;48.102;11.772;2022-08-19T09:33:11;15.63;;;10.45;;
46116;SDS011;32591;48.102;11.772;2022-08-19T09:35:38;15.43;;;11.32;;
46116;SDS011;32591;48.102;11.772;2022-08-19T09:38:05;18.73;;;12.65;;
46116;SDS011;32591;48.102;11.772;2022-08-19T09:40:32;16.55;;;10.85;;
46116;SDS011;32591;48.102;11.772;2022-08-19T09:42:59;15.40;;;11.32;;
46116;SDS011;32591;48.102;11.772;2022-08-19T09:45:29;15.90;;;10.48;;
46116;SDS011;32591;48.102;11.772;2022-08-19T09:47:56;14.85;;;10.75;;
46116;SDS011;32591;48.102;11.772;2022-08-19T09:50:23;13.50;;;10.57;;
46116;SDS011;32591;48.102;11.772;2022-08-19T09:52:53;12.07;;;8.90;;
46116;SDS011;32591;48.102;11.772;2022-08-19T09:55:20;13.15;;;9.13;;
46116;SDS011;32591;48.102;11.772;2022-08-19T09:57:46;12.90;;;9.32;;
46116;SDS011;32591;48.102;11.772;2022-08-19T10:00:13;11.40;;;8.90;;
46116;SDS011;32591;48.102;11.772;2022-08-19T10:02:52;12.52;;;9.13;;
46116;SDS011;32591;48.102;11.772;2022-08-19T10:05:19;13.52;;;9.38;;
46116;SDS011;32591;48.102;11.772;2022-08-19T10:08:03;12.77;;;9.38;;
46116;SDS011;32591;48.102;11.772;2022-08-19T10:10:34;13.60;;;9.90;;
46116;SDS011;32591;48.102;11.772;2022-08-19T10:13:02;14.07;;;8.75;;
46116;SDS011;32591;48.102;11.772;2022-08-19T10:15:29;10.07;;;7.60;;
46116;SDS011;32591;48.102;11.772;2022-08-19T10:17:57;12.15;;;8.23;;
46116;SDS011;32591;48.102;11.772;2022-08-19T10:20:24;14.68;;;9.95;;
46116;SDS011;32591;48.102;11.772;2022-08-19T10:22:51;10.93;;;7.68;;
46116;SDS011;32591;48.102;11.772;2022-08-19T10:25:19;11.60;;;7.85;;
46116;SDS011;32591;48.102;11.772;2022-08-19T10:27:47;8.55;;;6.90;;
46116;SDS011;32591;48.102;11.772;2022-08-19T10:30:14;8.98;;;6.72;;
46116;SDS011;32591;48.102;11.772;2022-08-19T10:32:40;8.82;;;6.45;;
46116;SDS011;32591;48.102;11.772;2022-08-19T10:35:09;8.82;;;6.97;;
46116;SDS011;32591;48.102;11.772;2022-08-19T10:37:36;9.27;;;7.03;;
46116;SDS011;32591;48.102;11.772;2022-08-19T10:40:04;10.98;;;7.70;;
46116;SDS011;32591;48.102;11.772;2022-08-19T10:42:35;9.40;;;6.97;;
46116;SDS011;32591;48.102;11.772;2022-08-19T10:45:03;7.75;;;6.28;;
46116;SDS011;32591;48.102;11.772;2022-08-19T10:47:31;9.40;;;6.38;;
46116;SDS011;32591;48.102;11.772;2022-08-19T10:49:59;8.68;;;6.68;;
46116;SDS011;32591;48.102;11.772;2022-08-19T10:52:47;12.45;;;6.60;;
46116;SDS011;32591;48.102;11.772;2022-08-19T10:55:15;9.57;;;6.47;;
46116;SDS011;32591;48.102;11.772;2022-08-19T10:58:02;8.82;;;5.90;;
46116;SDS011;32591;48.102;11.772;2022-08-19T11:00:29;6.47;;;5.25;;
46116;SDS011;32591;48.102;11.772;2022-08-19T11:02:57;9.05;;;5.97;;
46116;SDS011;32591;48.102;11.772;2022-08-19T11:05:24;6.78;;;5.40;;
46116;SDS011;32591;48.102;11.772;2022-08-19T11:07:52;6.97;;;4.90;;
46116;SDS011;32591;48.102;11.772;2022-08-19T11:10:19;7.43;;;5.55;;
46116;SDS011;32591;48.102;11.772;2022-08-19T11:12:56;9.27;;;6.47;;
46116;SDS011;32591;48.102;11.772;2022-08-19T11:15:23;9.52;;;6.13;;
46116;SDS011;32591;48.102;11.772;2022-08-19T11:17:53;7.68;;;6.05;;
46116;SDS011;32591;48.102;11.772;2022-08-19T11:20:21;9.55;;;6.40;;
46116;SDS011;32591;48.102;11.772;2022-08-19T11:22:49;8.60;;;6.25;;
46116;SDS011;32591;48.102;11.772;2022-08-19T11:25:19;8.77;;;7.07;;
46116;SDS011;32591;48.102;11.772;2022-08-19T11:27:47;8.27;;;6.20;;
46116;SDS011;32591;48.102;11.772;2022-08-19T11:30:16;6.85;;;5.47;;
46116;SDS011;32591;48.102;11.772;2022-08-19T11:32:43;11.93;;;6.65;;
46116;SDS011;32591;48.102;11.772;2022-08-19T11:35:10;8.10;;;6.40;;
46116;SDS011;32591;48.102;11.772;2022-08-19T11:37:37;7.82;;;5.05;;
46116;SDS011;32591;48.102;11.772;2022-08-19T11:40:06;7.03;;;5.47;;
46116;SDS011;32591;48.102;11.772;2022-08-19T11:42:35;7.90;;;5.38;;
46116;SDS011;32591;48.102;11.772;2022-08-19T11:45:19;8.40;;;5.93;;
46116;SDS011;32591;48.102;11.772;2022-08-19T11:47:46;8.00;;;5.43;;
46116;SDS011;32591;48.102;11.772;2022-08-19T11:50:13;6.00;;;4.80;;
46116;SDS011;32591;48.102;11.772;2022-08-19T11:52:41;7.07;;;4.50;;
46116;SDS011;32591;48.102;11.772;2022-08-19T11:55:10;7.32;;;5.32;;
46116;SDS011;32591;48.102;11.772;2022-08-19T11:57:38;7.38;;;4.85;;
46116;SDS011;32591;48.102;11.772;2022-08-19T12:00:06;7.40;;;4.90;;
46116;SDS011;32591;48.102;11.772;2022-08-19T12:02:35;5.90;;;4.82;;
46116;SDS011;32591;48.102;11.772;2022-08-19T12:05:02;6.43;;;4.70;;
46116;SDS011;32591;48.102;11.772;2022-08-19T12:07:30;5.47;;;4.70;;
46116;SDS011;32591;48.102;11.772;2022-08-19T12:09:58;5.88;;;4.28;;
46116;SDS011;32591;48.102;11.772;2022-08-19T12:12:26;6.72;;;4.55;;
46116;SDS011;32591;48.102;11.772;2022-08-19T12:14:54;5.28;;;3.90;;
46116;SDS011;32591;48.102;11.772;2022-08-19T12:17:24;7.63;;;4.78;;
46116;SDS011;32591;48.102;11.772;2022-08-19T12:19:52;8.48;;;6.97;;
46116;SDS011;32591;48.102;11.772;2022-08-19T12:22:19;7.75;;;5.55;;
46116;SDS011;32591;48.102;11.772;2022-08-19T12:24:46;6.90;;;5.72;;
46116;SDS011;32591;48.102;11.772;2022-08-19T12:27:15;7.82;;;5.68;;
46116;SDS011;32591;48.102;11.772;2022-08-19T12:29:44;8.35;;;6.25;;
46116;SDS011;32591;48.102;11.772;2022-08-19T12:32:11;8.02;;;6.32;;
46116;SDS011;32591;48.102;11.772;2022-08-19T12:34:38;7.07;;;4.68;;
46116;SDS011;32591;48.102;11.772;2022-08-19T12:37:05;6.35;;;4.50;;
46116;SDS011;32591;48.102;11.772;2022-08-19T12:39:36;5.65;;;4.50;;
46116;SDS011;32591;48.102;11.772;2022-08-19T12:42:07;6.07;;;4.78;;
46116;SDS011;32591;48.102;11.772;2022-08-19T12:44:34;5.72;;;4.18;;
46116;SDS011;32591;48.102;11.772;2022-08-19T12:47:05;5.40;;;3.50;;
46116;SDS011;32591;48.102;11.772;2022-08-19T12:49:33;4.28;;;2.95;;
46116;SDS011;32591;48.102;11.772;2022-08-19T12:52:02;4.85;;;2.70;;
46116;SDS011;32591;48.102;11.772;2022-08-19T12:54:29;2.78;;;1.90;;
46116;SDS011;32591;48.102;11.772;2022-08-19T12:56:57;1.90;;;1.50;;
46116;SDS011;32591;48.102;11.772;2022-08-19T12:59:24;2.45;;;1.48;;
46116;SDS011;32591;48.102;11.772;2022-08-19T13:01:52;2.00;;;1.48;;
46116;SDS011;32591;48.102;11.772;2022-08-19T13:04:20;1.50;;;1.17;;
46116;SDS011;32591;48.102;11.772;2022-08-19T13:06:47;2.40;;;1.50;;
46116;SDS011;32591;48.102;11.772;2022-08-19T13:09:14;1.30;;;1.15;;
46116;SDS011;32591;48.102;11.772;2022-08-19T13:11:41;1.08;;;0.80;;
46116;SDS011;32591;48.102;11.772;2022-08-19T13:14:08;1.42;;;1.00;;
46116;SDS011;32591;48.102;11.772;2022-08-19T13:16:36;1.60;;;1.13;;
46116;SDS011;32591;48.102;11.772;2022-08-19T13:19:03;2.35;;;1.02;;
46116;SDS011;32591;48.102;11.772;2022-08-19T13:21:32;1.48;;;1.13;;
46116;SDS011;32591;48.102;11.772;2022-08-19T13:23:59;1.42;;;1.25;;
46116;SDS011;32591;48.102;11.772;2022-08-19T13:26:26;1.00;;;0.85;;
46116;SDS011;32591;48.102;11.772;2022-08-19T13:28:53;1.98;;;1.30;;
46116;SDS011;32591;48.102;11.772;2022-08-19T13:31:40;1.70;;;1.10;;
46116;SDS011;32591;48.102;11.772;2022-08-19T13:34:26;1.33;;;1.00;;
46116;SDS011;32591;48.102;11.772;2022-08-19T13:36:59;2.25;;;1.30;;
46116;SDS011;32591;48.102;11.772;2022-08-19T13:39:29;2.17;;;1.38;;
46116;SDS011;32591;48.102;11.772;2022-08-19T13:41:57;2.78;;;1.40;;
46116;SDS011;32591;48.102;11.772;2022-08-19T13:44:26;1.70;;;1.40;;
46116;SDS011;32591;48.102;11.772;2022-08-19T13:46:54;2.05;;;1.20;;
46116;SDS011;32591;48.102;11.772;2022-08-19T13:49:31;2.67;;;1.33;;
46116;SDS011;32591;48.102;11.772;2022-08-19T13:52:01;2.38;;;1.15;;
46116;SDS011;32591;48.102;11.772;2022-08-19T13:54:29;1.33;;;1.13;;
46116;SDS011;32591;48.102;11.772;2022-08-19T13:56:56;1.83;;;1.38;;
46116;SDS011;32591;48.102;11.772;2022-08-19T13:59:23;3.00;;;1.10;;
46116;SDS011;32591;48.102;11.772;2022-08-19T14:01:50;2.03;;;1.30;;
46116;SDS011;32591;48.102;11.772;2022-08-19T14:04:17;1.23;;;1.13;;
46116;SDS011;32591;48.102;11.772;2022-08-19T14:06:43;1.27;;;1.08;;
46116;SDS011;32591;48.102;11.772;2022-08-19T14:09:12;3.28;;;1.30;;
46116;SDS011;32591;48.102;11.772;2022-08-19T14:11:39;1.83;;;1.20;;
46116;SDS011;32591;48.102;11.772;2022-08-19T14:14:06;1.63;;;1.10;;
46116;SDS011;32591;48.102;11.772;2022-08-19T14:16:33;1.65;;;1.00;;
46116;SDS011;32591;48.102;11.772;2022-08-19T14:19:00;2.22;;;1.33;;
46116;SDS011;32591;48.102;11.772;2022-08-19T14:21:26;2.20;;;1.40;;
46116;SDS011;32591;48.102;11.772;2022-08-19T14:23:53;1.95;;;1.33;;
46116;SDS011;32591;48.102;11.772;2022-08-19T14:26:22;3.40;;;1.80;;
46116;SDS011;32591;48.102;11.772;2022-08-19T14:28:49;3.33;;;2.28;;
46116;SDS011;32591;48.102;11.772;2022-08-19T14:31:17;2.50;;;1.95;;
46116;SDS011;32591;48.102;11.772;2022-08-19T14:33:48;3.25;;;2.38;;
46116;SDS011;32591;48.102;11.772;2022-08-19T14:36:16;3.38;;;2.53;;
46116;SDS011;32591;48.102;11.772;2022-08-19T14:38:44;2.63;;;1.85;;
46116;SDS011;32591;48.102;11.772;2022-08-19T14:41:17;2.78;;;1.98;;
46116;SDS011;32591;48.102;11.772;2022-08-19T14:43:48;2.55;;;2.20;;
46116;SDS011;32591;48.102;11.772;2022-08-19T14:46:19;2.80;;;1.95;;